Time;durP1;ratioP1;P1;durP2;ratioP2;P2;SDS_P1;SDS_P2;PMS_P1;PMS_P2;Temp;Humidity;BMP_temperature;BMP_pressure;BME280_temperature;BME280_humidity;BME280_pressure;Samples;Min_cycle;Max_cycle;Signal;HPM_P1;HPM_P2
2021/12/31 00:01:56;;;;;;;6.28;4.03;;;;;;;-7.54;90.68;99716.56;5092747;28;20036;-77
2021/12/31 00:04:23;;;;;;;13.98;5.82;;;;;;;-7.52;90.97;99696.69;5075650;28;20059;-76
2021/12/31 00:06:49;;;;;;;8.48;4.30;;;;;;;-7.50;90.38;99705.31;5092770;28;20077;-76
2021/12/31 00:09:14;;;;;;;9.07;4.80;;;;;;;-7.46;90.67;99703.09;5093671;28;20124;-76
2021/12/31 00:11:40;;;;;;;6.57;3.33;;;;;;;-7.45;91.25;99688.81;5093915;28;20090;-76
2021/12/31 00:14:07;;;;;;;14.57;6.80;;;;;;;-7.42;90.41;99688.41;5074429;28;20040;-77
2021/12/31 00:16:32;;;;;;;5.20;3.08;;;;;;;-7.42;90.37;99675.09;5092683;28;20418;-76
2021/12/31 00:18:58;;;;;;;11.38;6.20;;;;;;;-7.40;90.84;99667.75;5075068;28;20552;-75
2021/12/31 00:21:23;;;;;;;11.93;5.88;;;;;;;-7.37;91.08;99667.34;5058944;28;20048;-75
2021/12/31 00:23:49;;;;;;;14.82;6.35;;;;;;;-7.37;90.51;99646.03;5093216;28;20062;-76
2021/12/31 00:26:15;;;;;;;10.73;5.63;;;;;;;-7.38;91.11;99650.53;5075577;28;20413;-75
2021/12/31 00:28:40;;;;;;;10.38;5.40;;;;;;;-7.39;90.88;99643.56;5093321;28;20040;-76
2021/12/31 00:31:06;;;;;;;17.17;7.05;;;;;;;-7.37;91.09;99643.38;5091749;28;20051;-77
2021/12/31 00:33:31;;;;;;;17.02;6.65;;;;;;;-7.35;90.41;99641.34;5075090;28;20035;-77
2021/12/31 00:35:57;;;;;;;13.07;5.05;;;;;;;-7.34;91.47;99621.66;5091864;28;20063;-77
2021/12/31 00:38:22;;;;;;;12.18;5.32;;;;;;;-7.34;91.40;99635.00;5091884;28;20075;-76
2021/12/31 00:40:48;;;;;;;13.18;6.03;;;;;;;-7.33;91.09;99618.81;5092947;28;20040;-77
2021/12/31 00:43:14;;;;;;;16.15;6.78;;;;;;;-7.31;90.81;99618.63;5074861;28;20048;-77
2021/12/31 00:45:41;;;;;;;9.70;5.43;;;;;;;-7.31;90.97;99618.63;5093019;28;20506;-76
2021/12/31 00:48:12;;;;;;;11.90;6.47;;;;;;;-7.29;90.93;99616.59;5091551;28;20478;-77
2021/12/31 00:50:38;;;;;;;11.20;5.38;;;;;;;-7.28;91.41;99610.25;5092816;28;20549;-77
2021/12/31 00:53:04;;;;;;;8.00;3.97;;;;;;;-7.24;91.40;99598.19;5058043;28;20168;-76
2021/12/31 00:55:30;;;;;;;13.52;6.20;;;;;;;-7.24;90.94;99598.19;5092744;28;20462;-77
2021/12/31 00:57:56;;;;;;;12.18;6.65;;;;;;;-7.24;91.68;99600.88;5092509;28;20510;-77
2021/12/31 01:00:22;;;;;;;14.38;5.85;;;;;;;-7.24;91.44;99586.72;5091825;28;20083;-76
2021/12/31 01:02:48;;;;;;;17.33;6.82;;;;;;;-7.23;90.89;99575.03;5092276;28;20040;-76
2021/12/31 01:05:14;;;;;;;14.88;6.93;;;;;;;-7.24;91.09;99571.53;5074511;28;20044;-75
2021/12/31 01:07:41;;;;;;;16.80;6.57;;;;;;;-7.24;91.39;99574.22;5092801;28;20051;-75
2021/12/31 01:10:11;;;;;;;17.98;7.97;;;;;;;-7.25;91.39;99564.56;5091239;28;20059;-75
2021/12/31 01:12:37;;;;;;;18.42;7.43;;;;;;;-7.23;91.77;99567.03;5074639;28;20092;-75
2021/12/31 01:15:06;;;;;;;4.65;2.78;;;;;;;-7.23;91.80;99543.06;5057735;28;20036;-76
2021/12/31 01:18:03;;;;;;;14.35;7.53;;;;;;;-7.22;91.27;99536.69;5092256;28;20494;-76
2021/12/31 01:20:28;;;;;;;14.68;6.43;;;;;;;-7.20;91.28;99534.66;5092796;28;20040;-77
2021/12/31 01:22:54;;;;;;;4.88;2.95;;;;;;;-7.19;91.70;99539.81;5074085;28;20040;-77
2021/12/31 01:25:19;;;;;;;15.43;6.55;;;;;;;-7.16;91.78;99539.41;5092135;28;20123;-77
2021/12/31 01:27:45;;;;;;;18.95;7.40;;;;;;;-7.13;90.97;99530.19;5092273;28;20057;-76
2021/12/31 01:30:16;;;;;;;14.27;6.20;;;;;;;-7.11;91.08;99537.00;5073843;28;20122;-76
2021/12/31 01:32:42;;;;;;;12.43;6.82;;;;;;;-7.07;91.55;99537.44;5092043;28;20063;-76
2021/12/31 01:35:08;;;;;;;13.48;6.47;;;;;;;-7.05;91.60;99522.88;5091957;28;20043;-77
2021/12/31 01:37:34;;;;;;;15.45;6.78;;;;;;;-7.02;91.55;99511.00;5073794;28;20036;-76
2021/12/31 01:40:00;;;;;;;15.57;6.82;;;;;;;-7.00;91.86;99499.13;5091658;28;20043;-77
2021/12/31 01:42:32;;;;;;;16.30;7.40;;;;;;;-6.97;91.83;99497.91;5091881;28;20051;-78
2021/12/31 01:45:04;;;;;;;14.43;7.00;;;;;;;-6.95;91.32;99501.19;5090718;28;20470;-76
2021/12/31 01:50:31;;;;;;;12.60;6.18;;;;;;;-6.90;91.24;99481.97;5029334;28;20045;-77
2021/12/31 01:52:58;;;;;;;13.82;5.88;;;;;;;-6.89;91.48;99467.59;5065402;28;20052;-77
2021/12/31 01:55:26;;;;;;;14.82;7.70;;;;;;;-6.87;91.33;99468.22;5073609;28;20148;-77
2021/12/31 01:57:53;;;;;;;14.38;7.05;;;;;;;-6.87;91.13;99461.03;5057078;28;20575;-75
2021/12/31 02:00:19;;;;;;;6.20;3.05;;;;;;;-6.85;91.96;99447.50;5091841;28;20142;-75
2021/12/31 02:02:46;;;;;;;13.88;6.38;;;;;;;-6.82;91.83;99458.59;5090152;28;20079;-75
2021/12/31 02:05:12;;;;;;;14.38;6.35;;;;;;;-6.79;90.82;99446.72;5073382;28;20046;-75
2021/12/31 02:07:38;;;;;;;7.07;2.58;;;;;;;-6.78;91.21;99445.69;5073490;28;20506;-75
2021/12/31 02:10:05;;;;;;;15.65;7.10;;;;;;;-6.76;91.26;99443.69;5073266;28;20039;-76
2021/12/31 02:12:31;;;;;;;16.80;7.55;;;;;;;-6.73;90.95;99422.75;5090426;28;20040;-75
2021/12/31 02:14:56;;;;;;;13.35;5.60;;;;;;;-6.70;91.13;99434.88;5089950;28;20131;-76
2021/12/31 02:17:22;;;;;;;13.80;6.90;;;;;;;-6.69;91.35;99429.31;5073536;28;20131;-76
2021/12/31 02:20:05;;;;;;;10.07;6.40;;;;;;;-6.66;91.81;99425.44;5091155;28;20058;-75
2021/12/31 02:22:32;;;;;;;6.47;3.28;;;;;;;-6.62;91.94;99420.50;5091240;28;20040;-76
2021/12/31 02:25:00;;;;;;;12.48;5.38;;;;;;;-6.62;91.39;99405.34;5073058;28;20096;-76
2021/12/31 02:27:27;;;;;;;12.60;6.55;;;;;;;-6.60;91.53;99397.94;5090961;28;20036;-77
2021/12/31 02:29:53;;;;;;;16.50;7.35;;;;;;;-6.58;91.66;99395.94;5091269;28;20040;-75
2021/12/31 02:32:19;;;;;;;13.98;6.47;;;;;;;-6.58;91.36;99393.25;5056423;28;20102;-77
2021/12/31 02:34:45;;;;;;;12.63;5.25;;;;;;;-6.57;91.40;99392.22;5073100;28;20051;-75
2021/12/31 02:37:10;;;;;;;15.77;6.70;;;;;;;-6.54;91.74;99375.00;5089684;28;20153;-77
2021/12/31 02:39:39;;;;;;;12.88;5.32;;;;;;;-6.53;92.23;99387.31;5072993;28;20036;-76
2021/12/31 02:42:05;;;;;;;16.10;7.35;;;;;;;-6.51;92.38;99371.91;5091267;28;20055;-76
2021/12/31 02:44:31;;;;;;;14.73;5.60;;;;;;;-6.49;92.13;99377.88;5091009;28;20143;-76
2021/12/31 02:46:58;;;;;;;17.17;8.02;;;;;;;-6.48;91.79;99372.34;5090893;28;20573;-76
2021/12/31 02:49:24;;;;;;;11.70;5.57;;;;;;;-6.47;92.13;99365.97;5090947;28;20036;-76
2021/12/31 02:51:50;;;;;;;10.60;4.88;;;;;;;-6.46;92.72;99356.94;5090888;28;20036;-77
2021/12/31 02:54:16;;;;;;;18.10;7.93;;;;;;;-6.45;92.34;99352.41;5089535;28;20455;-76
2021/12/31 02:56:42;;;;;;;12.70;6.45;;;;;;;-6.45;93.13;99350.56;5089628;28;20036;-76
2021/12/31 02:59:10;;;;;;;10.02;4.13;;;;;;;-6.42;92.92;99336.00;5089555;28;20455;-76
2021/12/31 03:01:36;;;;;;;6.05;4.10;;;;;;;-6.40;93.01;99329.47;5091131;28;20036;-76
2021/12/31 03:04:01;;;;;;;11.98;5.13;;;;;;;-6.38;93.16;99332.75;5090531;28;20050;-77
2021/12/31 03:06:27;;;;;;;8.77;5.47;;;;;;;-6.35;93.56;99326.16;5073190;28;20040;-77
2021/12/31 03:08:54;;;;;;;11.15;6.03;;;;;;;-6.33;93.44;99320.63;5089634;28;20085;-75
2021/12/31 03:11:20;;;;;;;9.57;5.13;;;;;;;-6.32;93.86;99317.75;5072583;28;20478;-76
2021/12/31 03:13:53;;;;;;;4.40;2.85;;;;;;;-6.30;93.48;99306.88;5056095;28;20040;-77
2021/12/31 03:16:21;;;;;;;13.93;7.22;;;;;;;-6.27;93.12;99306.44;5090797;28;20032;-76
2021/12/31 03:18:48;;;;;;;18.70;6.90;;;;;;;-6.23;93.45;99297.03;5090588;28;20075;-77
2021/12/31 03:21:21;;;;;;;5.20;2.10;;;;;;;-6.22;93.69;99288.00;5072454;28;20044;-77
2021/12/31 03:23:52;;;;;;;12.35;5.68;;;;;;;-6.19;93.43;99288.41;5072487;28;20524;-77
2021/12/31 03:26:18;;;;;;;9.15;3.90;;;;;;;-6.17;94.38;99293.53;5072474;28;20044;-76
2021/12/31 03:28:44;;;;;;;6.75;3.13;;;;;;;-6.16;94.16;99296.00;5090497;28;20040;-76
2021/12/31 03:31:10;;;;;;;13.30;5.60;;;;;;;-6.13;93.70;99282.22;5089353;28;20055;-77
2021/12/31 03:33:36;;;;;;;5.53;2.97;;;;;;;-6.10;93.70;99275.63;5090572;28;20032;-76
2021/12/31 03:36:01;;;;;;;3.80;2.45;;;;;;;-6.09;93.85;99278.09;5089575;28;20067;-76
2021/12/31 03:38:27;;;;;;;7.20;3.45;;;;;;;-6.05;94.17;99288.41;5090370;28;20036;-75
2021/12/31 03:40:53;;;;;;;5.78;3.03;;;;;;;-6.03;94.39;99271.13;5072763;28;20131;-76
2021/12/31 03:43:18;;;;;;;14.02;5.82;;;;;;;-6.01;94.90;99263.72;5090273;28;20503;-76
2021/12/31 03:45:46;;;;;;;11.18;4.82;;;;;;;-5.99;94.26;99264.34;5090410;28;20521;-76
2021/12/31 03:48:11;;;;;;;13.65;6.93;;;;;;;-5.98;94.65;99252.63;5090291;28;20040;-76
2021/12/31 03:50:37;;;;;;;12.02;4.72;;;;;;;-5.95;94.12;99243.38;5094017;28;20059;-75
2021/12/31 03:53:02;;;;;;;6.68;3.42;;;;;;;-5.93;95.23;99247.47;5092475;28;20036;-76
2021/12/31 03:55:28;;;;;;;11.80;5.30;;;;;;;-5.92;94.81;99242.94;5094057;28;20047;-76
2021/12/31 03:57:54;;;;;;;8.75;4.68;;;;;;;-5.92;94.31;99241.09;5093768;28;20530;-75
2021/12/31 04:00:20;;;;;;;13.98;5.93;;;;;;;-5.89;95.27;99245.19;5093616;28;20040;-76
2021/12/31 04:02:45;;;;;;;15.10;6.45;;;;;;;-5.90;94.63;99249.75;5093930;28;20047;-76
2021/12/31 04:05:11;;;;;;;12.05;5.47;;;;;;;-5.86;95.00;99239.44;5093661;28;20043;-76
2021/12/31 04:07:37;;;;;;;8.50;4.07;;;;;;;-5.84;94.69;99232.03;5058859;28;20036;-76
2021/12/31 04:10:03;;;;;;;12.00;5.55;;;;;;;-5.83;95.09;99239.84;5093436;28;20047;-76
2021/12/31 04:12:29;;;;;;;14.13;6.38;;;;;;;-5.83;94.93;99239.84;5075491;28;20093;-76
2021/12/31 04:14:54;;;;;;;8.20;4.68;;;;;;;-5.82;94.97;99235.31;5059136;28;20048;-76
2021/12/31 04:17:20;;;;;;;7.60;3.55;;;;;;;-5.81;95.02;99243.09;5093683;28;20040;-76
2021/12/31 04:19:51;;;;;;;11.25;5.65;;;;;;;-5.79;95.73;99233.03;5093462;28;20501;-76
2021/12/31 04:22:17;;;;;;;13.52;6.05;;;;;;;-5.78;95.27;99237.34;5093176;28;20040;-76
2021/12/31 04:27:08;;;;;;;9.90;5.13;;;;;;;-5.73;95.09;99233.22;5075116;28;20409;-76
2021/12/31 04:29:34;;;;;;;10.48;5.72;;;;;;;-5.72;95.49;99233.03;5075469;28;20032;-76
2021/12/31 04:32:00;;;;;;;10.18;5.05;;;;;;;-5.69;95.24;99234.47;5093432;28;20499;-75
2021/12/31 04:34:27;;;;;;;8.30;5.13;;;;;;;-5.67;95.58;99229.72;5092997;28;20040;-76
2021/12/31 04:36:52;;;;;;;10.48;4.28;;;;;;;-5.67;95.47;99217.19;5075060;28;20036;-76
2021/12/31 04:39:18;;;;;;;10.18;5.55;;;;;;;-5.67;95.27;99211.03;5091584;28;20040;-76
2021/12/31 04:41:44;;;;;;;8.57;5.13;;;;;;;-5.66;94.97;99209.97;5075017;28;20040;-76
2021/12/31 04:44:09;;;;;;;16.20;5.88;;;;;;;-5.64;95.15;99210.59;5092657;28;20449;-76
2021/12/31 04:46:35;;;;;;;9.70;5.43;;;;;;;-5.62;95.74;99205.84;5074829;28;20032;-75
2021/12/31 04:49:01;;;;;;;12.63;5.90;;;;;;;-5.60;95.42;99196.59;5074894;28;20097;-76
2021/12/31 04:51:26;;;;;;;12.43;5.25;;;;;;;-5.58;95.08;99212.41;5091462;28;20047;-76
2021/12/31 04:53:52;;;;;;;11.43;5.95;;;;;;;-5.57;95.93;99200.69;5093056;28;20031;-76
2021/12/31 04:56:17;;;;;;;14.18;6.43;;;;;;;-5.55;96.11;99198.66;5092812;28;20036;-77
2021/12/31 04:58:43;;;;;;;13.27;6.60;;;;;;;-5.54;95.39;99200.28;5074646;28;20055;-76
2021/12/31 05:01:09;;;;;;;11.77;5.82;;;;;;;-5.51;96.04;99194.50;5092121;28;20441;-77
2021/12/31 05:03:34;;;;;;;11.38;5.03;;;;;;;-5.51;95.32;99194.50;5092828;28;20059;-76
2021/12/31 05:06:00;;;;;;;10.82;5.05;;;;;;;-5.49;95.64;99195.13;5074516;28;20055;-77
2021/12/31 05:08:25;;;;;;;15.63;5.93;;;;;;;-5.47;96.30;99188.53;5074477;28;20048;-76
2021/12/31 05:10:51;;;;;;;16.48;6.80;;;;;;;-5.46;95.56;99187.47;5092743;28;20066;-76
2021/12/31 05:13:19;;;;;;;13.98;4.68;;;;;;;-5.41;96.06;99189.50;5092469;28;20135;-76
2021/12/31 05:15:46;;;;;;;11.30;5.30;;;;;;;-5.39;96.52;99182.09;5074672;28;20113;-76
2021/12/31 05:18:12;;;;;;;14.88;4.70;;;;;;;-5.37;96.28;99176.56;5091844;28;20047;-77
2021/12/31 05:20:38;;;;;;;7.22;3.40;;;;;;;-5.36;96.52;99170.19;5091040;28;20382;-77
2021/12/31 05:23:04;;;;;;;12.82;5.85;;;;;;;-5.33;95.86;99175.91;5092077;28;20039;-76
2021/12/31 05:25:29;;;;;;;12.70;5.60;;;;;;;-5.32;96.66;99166.84;5092412;28;20044;-76
2021/12/31 05:27:55;;;;;;;10.02;5.28;;;;;;;-5.30;96.26;99171.97;5074038;28;20052;-76
2021/12/31 05:30:21;;;;;;;9.30;4.65;;;;;;;-5.27;96.47;99158.19;5073939;28;20188;-77
2021/12/31 05:32:47;;;;;;;11.10;4.80;;;;;;;-5.26;96.12;99160.63;5091949;28;20593;-77
2021/12/31 05:35:14;;;;;;;11.23;5.57;;;;;;;-5.23;96.00;99164.72;5057513;28;20040;-76
2021/12/31 05:37:39;;;;;;;10.65;5.65;;;;;;;-5.22;96.08;99161.03;5074054;28;20096;-76
2021/12/31 05:40:06;;;;;;;9.18;4.72;;;;;;;-5.18;96.50;99149.69;5073790;28;20142;-75
2021/12/31 05:42:31;;;;;;;9.90;5.22;;;;;;;-5.17;96.26;99137.16;5091939;28;20525;-76
2021/12/31 05:44:57;;;;;;;12.98;5.82;;;;;;;-5.14;96.58;99136.72;5090539;28;20047;-76
2021/12/31 05:47:23;;;;;;;10.70;5.18;;;;;;;-5.11;96.52;99136.28;5073685;28;20051;-76
2021/12/31 05:49:49;;;;;;;16.23;5.88;;;;;;;-5.08;96.48;99140.38;5090786;28;20505;-75
2021/12/31 05:52:15;;;;;;;10.50;6.03;;;;;;;-5.05;96.29;99140.75;5090426;28;20071;-76
2021/12/31 05:54:40;;;;;;;12.05;5.40;;;;;;;-5.03;96.61;99130.69;5073542;28;20071;-77
2021/12/31 05:57:06;;;;;;;10.43;4.72;;;;;;;-5.00;96.37;99132.91;5091228;28;20032;-77
2021/12/31 05:59:32;;;;;;;13.27;5.85;;;;;;;-4.99;96.24;99134.53;5056678;28;20051;-76
2021/12/31 06:01:57;;;;;;;10.13;5.35;;;;;;;-4.95;96.61;99137.59;5091465;28;20093;-75
2021/12/31 06:04:23;;;;;;;9.27;5.13;;;;;;;-4.94;96.11;99134.69;5073117;28;20465;-76
2021/12/31 06:06:48;;;;;;;11.88;5.75;;;;;;;-4.91;96.49;99136.13;5091387;28;20039;-77
2021/12/31 06:09:14;;;;;;;13.13;5.50;;;;;;;-4.89;96.50;99136.72;5091482;28;20043;-76
2021/12/31 06:11:41;;;;;;;12.40;5.45;;;;;;;-4.86;95.79;99136.28;5090909;28;20059;-77
2021/12/31 06:14:07;;;;;;;14.20;6.50;;;;;;;-4.84;96.01;99130.75;5090338;28;20043;-77
2021/12/31 06:16:37;;;;;;;12.07;5.78;;;;;;;-4.81;96.01;99133.78;5073213;28;20036;-77
2021/12/31 06:19:06;;;;;;;9.77;4.75;;;;;;;-4.77;96.74;99140.34;5090982;28;20101;-77
2021/12/31 06:21:42;;;;;;;11.13;5.45;;;;;;;-4.75;96.96;99135.56;5073482;28;20063;-75
2021/12/31 06:24:09;;;;;;;9.45;5.65;;;;;;;-4.73;96.30;99136.19;5090949;28;20139;-77
2021/12/31 06:26:35;;;;;;;10.63;5.78;;;;;;;-4.70;95.78;99124.22;5091334;28;20040;-77
2021/12/31 06:29:01;;;;;;;13.02;4.72;;;;;;;-4.69;95.94;99124.00;5073064;28;20081;-77
2021/12/31 06:31:26;;;;;;;12.18;5.70;;;;;;;-4.68;96.70;99122.16;5091444;28;20039;-75
2021/12/31 06:33:52;;;;;;;9.68;5.13;;;;;;;-4.65;96.26;99127.06;5090147;28;20066;-76
2021/12/31 06:36:19;;;;;;;8.05;4.90;;;;;;;-4.62;96.38;99132.78;5090788;28;20035;-77
2021/12/31 06:38:45;;;;;;;9.38;5.03;;;;;;;-4.59;96.32;99128.84;5072749;28;20044;-75
2021/12/31 06:41:11;;;;;;;9.35;5.65;;;;;;;-4.55;96.18;99125.50;5072794;28;20035;-77
2021/12/31 06:43:36;;;;;;;10.07;5.68;;;;;;;-4.50;96.82;99121.38;5089735;28;20493;-77
2021/12/31 06:46:02;;;;;;;8.85;5.47;;;;;;;-4.46;96.71;99122.56;5091030;28;20043;-76
2021/12/31 06:48:27;;;;;;;11.23;5.53;;;;;;;-4.43;96.59;99127.47;5090917;28;20032;-76
2021/12/31 06:50:53;;;;;;;8.73;5.05;;;;;;;-4.39;96.53;99128.66;5090174;28;20051;-75
2021/12/31 06:53:19;;;;;;;9.45;5.13;;;;;;;-4.37;96.68;99131.94;5089689;28;20043;-77
2021/12/31 06:55:44;;;;;;;9.10;4.20;;;;;;;-4.34;96.58;99123.44;5073134;28;20271;-76
2021/12/31 06:58:10;;;;;;;13.27;4.97;;;;;;;-4.30;97.19;99127.34;5090824;28;20456;-76
2021/12/31 07:00:36;;;;;;;7.25;4.38;;;;;;;-4.25;97.63;99114.09;5091211;28;20059;-77
2021/12/31 07:03:10;;;;;;;8.63;4.85;;;;;;;-4.21;96.82;99115.28;5089673;28;20123;-76
2021/12/31 07:05:36;;;;;;;9.82;4.57;;;;;;;-4.16;97.22;99107.41;5090771;28;20421;-77
2021/12/31 07:08:03;;;;;;;10.60;5.47;;;;;;;-4.16;96.89;99112.78;5089592;28;20032;-76
2021/12/31 07:10:28;;;;;;;8.77;4.85;;;;;;;-4.12;97.34;99105.91;5091007;28;20043;-77
2021/12/31 07:13:04;;;;;;;8.63;5.13;;;;;;;-4.09;97.21;99108.16;5072648;28;20486;-74
2021/12/31 07:15:30;;;;;;;5.97;3.45;;;;;;;-4.03;97.59;99111.78;5056458;28;20093;-76
2021/12/31 07:17:56;;;;;;;6.50;4.20;;;;;;;-4.01;97.78;99107.00;5072640;28;20036;-76
2021/12/31 07:20:22;;;;;;;9.95;4.53;;;;;;;-3.97;97.47;99105.56;5072456;28;20043;-75
2021/12/31 07:22:48;;;;;;;4.88;2.13;;;;;;;-3.94;97.59;99099.75;5091490;28;20056;-78
2021/12/31 07:25:14;;;;;;;6.50;3.45;;;;;;;-3.91;97.10;99103.81;5094349;28;20134;-76
2021/12/31 07:27:39;;;;;;;12.60;5.25;;;;;;;-3.88;97.56;99103.38;5094423;28;20124;-76
2021/12/31 07:30:06;;;;;;;9.82;4.93;;;;;;;-3.86;97.88;99101.28;5093288;28;20044;-77
2021/12/31 07:32:38;;;;;;;5.80;3.85;;;;;;;-3.84;97.41;99099.19;5093058;28;20135;-77
2021/12/31 07:35:04;;;;;;;7.32;3.90;;;;;;;-3.81;97.76;99098.75;5094320;28;20043;-77
2021/12/31 07:37:30;;;;;;;11.68;4.60;;;;;;;-3.80;97.68;99100.41;5092837;28;20036;-77
2021/12/31 07:40:01;;;;;;;9.38;4.80;;;;;;;-3.76;97.99;99093.53;5076405;28;20047;-77
2021/12/31 07:42:27;;;;;;;5.72;2.60;;;;;;;-3.75;97.77;99079.91;5075829;28;20122;-77
2021/12/31 07:44:52;;;;;;;6.22;4.10;;;;;;;-3.72;98.08;99097.38;5093893;28;20470;-76
2021/12/31 07:47:18;;;;;;;7.60;3.35;;;;;;;-3.70;97.83;99085.41;5093964;28;20036;-77
2021/12/31 07:49:43;;;;;;;9.05;5.07;;;;;;;-3.65;97.78;99082.03;5075980;28;20513;-76
2021/12/31 07:52:09;;;;;;;8.93;2.58;;;;;;;-3.64;98.29;99089.06;5075904;28;20059;-76
2021/12/31 07:54:34;;;;;;;7.85;3.88;;;;;;;-3.61;98.19;99096.63;5075737;28;20748;-76
2021/12/31 07:57:00;;;;;;;6.45;2.75;;;;;;;-3.57;98.40;99092.44;5093903;28;20043;-77
2021/12/31 07:59:25;;;;;;;2.05;1.73;;;;;;;-3.53;98.13;99096.31;5092807;28;20058;-77
2021/12/31 08:01:51;;;;;;;5.80;3.63;;;;;;;-3.51;97.86;99088.03;5093614;28;20085;-76
2021/12/31 08:04:17;;;;;;;6.03;3.33;;;;;;;-3.48;98.10;99092.94;5092635;28;20063;-77
2021/12/31 08:06:42;;;;;;;6.00;3.30;;;;;;;-3.46;97.94;99090.88;5075575;28;20569;-75
2021/12/31 08:09:08;;;;;;;6.63;2.95;;;;;;;-3.42;98.22;99089.34;5093653;28;20126;-75
2021/12/31 08:11:33;;;;;;;8.95;4.07;;;;;;;-3.40;98.59;99095.31;5093433;28;20036;-76
2021/12/31 08:13:59;;;;;;;5.63;1.98;;;;;;;-3.38;97.93;99091.34;5075223;28;20079;-76
2021/12/31 08:16:24;;;;;;;6.22;2.72;;;;;;;-3.35;98.12;99090.88;5075358;28;20040;-77
2021/12/31 08:18:50;;;;;;;3.40;2.70;;;;;;;-3.31;98.66;99093.09;5093163;28;20052;-76
2021/12/31 08:21:15;;;;;;;10.05;3.65;;;;;;;-3.29;98.11;99080.31;5058588;28;20043;-76
2021/12/31 08:23:41;;;;;;;6.30;2.03;;;;;;;-3.24;98.18;99085.78;5093301;28;20498;-76
2021/12/31 08:26:07;;;;;;;3.88;1.48;;;;;;;-3.20;98.60;99084.28;5075160;28;20044;-75
2021/12/31 08:28:32;;;;;;;8.18;3.05;;;;;;;-3.19;97.99;99080.53;5093682;28;20055;-76
2021/12/31 08:30:58;;;;;;;3.20;2.25;;;;;;;-3.15;98.60;99085.22;5093495;28;20059;-76
2021/12/31 08:33:27;;;;;;;6.38;3.28;;;;;;;-3.13;98.21;99083.13;5092764;28;20040;-75
2021/12/31 08:35:53;;;;;;;5.03;3.03;;;;;;;-3.08;98.34;99077.88;5091556;28;20051;-76
2021/12/31 08:38:18;;;;;;;2.92;1.35;;;;;;;-3.05;98.31;99076.59;5075011;28;20039;-76
2021/12/31 08:40:44;;;;;;;6.45;2.65;;;;;;;-3.01;98.66;99067.03;5091932;28;20032;-76
2021/12/31 08:43:10;;;;;;;3.60;2.35;;;;;;;-2.98;98.11;99074.63;5091661;28;20119;-77
2021/12/31 08:45:35;;;;;;;3.45;2.22;;;;;;;-2.92;98.71;99064.84;5092720;28;20044;-77
2021/12/31 08:48:01;;;;;;;5.40;2.70;;;;;;;-2.89;98.73;99070.56;5093063;28;20046;-77
2021/12/31 08:50:27;;;;;;;4.43;2.38;;;;;;;-2.84;98.91;99076.03;5092932;28;20405;-76
2021/12/31 08:52:53;;;;;;;3.80;2.10;;;;;;;-2.80;98.36;99074.53;5074972;28;20068;-77
2021/12/31 08:55:18;;;;;;;3.80;2.58;;;;;;;-2.77;98.70;99068.72;5091441;28;20449;-78
2021/12/31 08:57:44;;;;;;;2.10;1.45;;;;;;;-2.74;98.61;99062.06;5091663;28;20036;-75
2021/12/31 09:00:10;;;;;;;3.47;2.40;;;;;;;-2.72;98.48;99070.69;5091396;28;20064;-75
2021/12/31 09:02:38;;;;;;;5.22;2.80;;;;;;;-2.69;98.76;99059.47;5091236;28;20051;-78
2021/12/31 09:05:04;;;;;;;6.53;2.80;;;;;;;-2.67;99.26;99067.28;5092274;28;20051;-76
2021/12/31 09:07:30;;;;;;;2.67;1.60;;;;;;;-2.66;99.02;99063.56;5092277;28;20123;-76
2021/12/31 09:09:55;;;;;;;6.10;2.67;;;;;;;-2.63;99.33;99063.91;5074147;28;20529;-76
2021/12/31 09:12:21;;;;;;;4.88;2.75;;;;;;;-2.60;99.26;99050.03;5074115;28;20042;-75
2021/12/31 09:14:47;;;;;;;1.50;1.30;;;;;;;-2.55;99.17;99057.38;5092321;28;20063;-77
2021/12/31 09:17:12;;;;;;;1.40;1.30;;;;;;;-2.53;99.14;99057.97;5091083;28;20092;-77
2021/12/31 09:19:38;;;;;;;4.45;2.35;;;;;;;-2.49;98.82;99062.63;5074114;28;20426;-79
2021/12/31 09:22:04;;;;;;;5.28;3.22;;;;;;;-2.45;98.95;99068.31;5092199;28;20044;-77
2021/12/31 09:24:31;;;;;;;4.38;2.67;;;;;;;-2.40;99.32;99055.03;5057195;28;20047;-77
2021/12/31 09:26:56;;;;;;;3.70;2.38;;;;;;;-2.38;99.17;99058.28;5092096;28;20527;-76
2021/12/31 09:29:23;;;;;;;3.35;2.75;;;;;;;-2.35;98.81;99060.50;5092362;28;20113;-78
2021/12/31 09:31:50;;;;;;;2.08;1.48;;;;;;;-2.31;99.23;99050.09;5091213;28;20047;-77
2021/12/31 09:34:16;;;;;;;6.93;2.60;;;;;;;-2.28;98.52;99055.00;5090803;28;20063;-76
2021/12/31 09:36:41;;;;;;;2.38;1.40;;;;;;;-2.24;98.87;99051.63;5091847;28;20510;-76
2021/12/31 09:39:07;;;;;;;4.05;2.03;;;;;;;-2.22;98.56;99052.19;5091893;28;20085;-76
2021/12/31 09:41:33;;;;;;;3.53;2.22;;;;;;;-2.19;98.84;99051.72;5090568;28;20118;-77
2021/12/31 09:43:58;;;;;;;4.57;1.90;;;;;;;-2.15;98.79;99052.03;5092110;28;20044;-76
2021/12/31 09:46:24;;;;;;;3.47;1.85;;;;;;;-2.13;99.34;99056.13;5090511;28;20047;-76
2021/12/31 09:48:50;;;;;;;3.30;2.53;;;;;;;-2.10;99.55;99065.56;5073543;28;20201;-76
2021/12/31 09:51:17;;;;;;;3.95;2.13;;;;;;;-2.10;99.36;99062.91;5090240;28;20039;-76
2021/12/31 09:53:43;;;;;;;1.98;1.40;;;;;;;-2.07;99.08;99062.44;5091632;28;20387;-76
2021/12/31 09:56:08;;;;;;;4.00;2.38;;;;;;;-2.04;99.23;99059.28;5091387;28;20383;-76
2021/12/31 09:58:37;;;;;;;2.80;1.75;;;;;;;-2.01;99.33;99053.41;5073303;28;20047;-77
2021/12/31 10:01:04;;;;;;;3.58;2.25;;;;;;;-2.00;99.20;99060.44;5091469;28;20081;-76
2021/12/31 10:03:32;;;;;;;3.78;2.22;;;;;;;-1.95;99.38;99051.63;5073070;28;20044;-77
2021/12/31 10:06:05;;;;;;;4.45;2.60;;;;;;;-1.94;99.23;99050.59;5091392;28;20067;-76
2021/12/31 10:08:39;;;;;;;4.65;2.47;;;;;;;-1.90;99.39;99054.44;5091211;28;20046;-76
2021/12/31 10:11:04;;;;;;;5.47;3.45;;;;;;;-1.88;99.04;99053.16;5091183;28;20047;-76
2021/12/31 10:13:31;;;;;;;2.58;2.17;;;;;;;-1.84;98.73;99045.41;5072617;28;20040;-77
2021/12/31 10:15:57;;;;;;;6.03;3.25;;;;;;;-1.83;99.41;99052.41;5089837;28;20418;-75
2021/12/31 10:18:34;;;;;;;1.48;1.08;;;;;;;-1.80;99.31;99046.56;5090995;28;20138;-76
2021/12/31 10:20:59;;;;;;;1.73;1.60;;;;;;;-1.78;99.40;99049.81;5073503;28;20203;-76
2021/12/31 10:23:25;;;;;;;4.88;2.60;;;;;;;-1.74;99.49;99044.78;5072905;28;20481;-77
2021/12/31 10:26:06;;;;;;;3.80;1.90;;;;;;;-1.72;98.96;99045.38;5091277;28;20048;-78
2021/12/31 10:28:32;;;;;;;2.85;1.48;;;;;;;-1.69;98.96;99051.09;5072839;28;20541;-77
2021/12/31 10:31:14;;;;;;;2.85;0.82;;;;;;;-1.67;99.46;99062.41;5072953;28;20044;-77
2021/12/31 10:33:44;;;;;;;8.18;2.70;;;;;;;-1.66;99.68;99055.16;5091250;28;20043;-77
2021/12/31 10:36:31;;;;;;;0.77;0.77;;;;;;;-1.63;99.13;99052.81;5089971;28;20059;-77
2021/12/31 10:38:59;;;;;;;2.70;1.45;;;;;;;-1.61;99.11;99056.06;5089868;28;20474;-75
2021/12/31 10:41:24;;;;;;;5.25;2.55;;;;;;;-1.59;99.26;99062.03;5089596;28;20501;-79
2021/12/31 10:43:59;;;;;;;4.25;2.42;;;;;;;-1.55;99.11;99068.56;5091077;28;20040;-78
2021/12/31 10:46:25;;;;;;;4.70;2.53;;;;;;;-1.55;99.29;99063.19;5091134;28;20047;-76
2021/12/31 10:48:54;;;;;;;9.90;3.47;;;;;;;-1.54;99.06;99072.88;5073056;28;20040;-77
2021/12/31 10:51:46;;;;;;;5.65;3.08;;;;;;;-1.50;99.09;99067.03;5072836;28;20043;-78
2021/12/31 10:54:18;;;;;;;6.95;2.92;;;;;;;-1.48;99.80;99062.22;5056285;28;20044;-76
2021/12/31 10:56:43;;;;;;;7.80;3.45;;;;;;;-1.46;99.46;99062.78;5090640;28;20043;-77
2021/12/31 10:59:09;;;;;;;4.13;2.80;;;;;;;-1.43;99.66;99059.59;5076019;28;20036;-77
2021/12/31 11:01:34;;;;;;;5.22;2.38;;;;;;;-1.40;99.23;99068.00;5094791;28;20036;-76
2021/12/31 11:04:00;;;;;;;3.15;2.30;;;;;;;-1.36;99.07;99069.19;5095027;28;20573;-78
2021/12/31 11:06:26;;;;;;;6.13;2.85;;;;;;;-1.32;99.32;99074.88;5093211;28;20039;-77
2021/12/31 11:08:54;;;;;;;3.22;2.65;;;;;;;-1.31;99.03;99077.34;5093379;28;20055;-77
2021/12/31 11:11:21;;;;;;;3.63;2.45;;;;;;;-1.29;99.64;99072.53;5076698;28;20043;-77
2021/12/31 11:13:46;;;;;;;3.42;2.03;;;;;;;-1.27;99.59;99077.66;5093211;28;20036;-75
2021/12/31 11:16:13;;;;;;;3.50;2.33;;;;;;;-1.25;99.76;99083.63;5093640;28;20040;-76
2021/12/31 11:18:40;;;;;;;4.28;2.70;;;;;;;-1.23;99.91;99090.38;5094335;28;20047;-76
2021/12/31 11:21:09;;;;;;;6.85;3.38;;;;;;;-1.18;99.46;99088.84;5094422;28;20047;-77
2021/12/31 11:23:36;;;;;;;4.57;2.58;;;;;;;-1.15;99.42;99088.38;5093149;28;20067;-77
2021/12/31 11:26:07;;;;;;;3.15;2.05;;;;;;;-1.13;99.94;99092.44;5076584;28;20433;-77
2021/12/31 11:28:38;;;;;;;4.03;2.53;;;;;;;-1.12;99.36;99094.06;5093137;28;20055;-76
2021/12/31 11:31:19;;;;;;;3.53;2.35;;;;;;;-1.09;99.94;99100.84;5094398;28;20081;-76
2021/12/31 11:33:46;;;;;;;3.42;2.30;;;;;;;-1.07;99.81;99090.66;5094087;28;20040;-77